< < Back
Terminal Aerodrome Forecast


Current Version              Previous Versions:   1  2  3  4  5  6  7  8  9  

Terminal Aerodrome Forecast

084
FTUS42 KJAX 081120
TAFGNV
TAF
KGNV 081120Z 0812/0912 26006KT P6SM SKC
     FM081600 24018G28KT P6SM FEW050 SCT250
     FM082200 25015G25KT P6SM SCT030 BKN060
     FM090400 28014G21KT P6SM FEW050 SCT250=

Latest METAR

117
SAUS70 KWBC 081900
MTRGNV
METAR KGNV 081853Z 24020G27KT 10SM BKN060 16/04 A2991 RMK AO2 PK WND
24027/1852 PRESFR SLP129 T01610044


USA.gov is the U.S. government's official web portal to all federal, state and local government web resources and services.